Shanghai Trader — 9HA3871 — position and weather

sailwx.info

Track history (hours):
 
Tides and Currents Weather Stations Pressure Air Temp Water Temp Dewpoint Dewpoint Depression Visibility Wind Speed Wind Dir Waves Ship Positions

Shanghai Trader

Last reported at 2017-Nov-17 22:00 UTC. Time now 2017-Nov-18 02:57 UTC.
Position N 32°03' W 079°48'.

Length 294 m; draft 11.1 m.

Type: Ship (hazmat cat A). MMSI: 256266000.

Date/timePositionNaut miles runAvg speedWind from/ knotsBaromVisibWave heightAir tempDewpointWater temp
2017-Nov-17 22:00N 32°03' W 079°48'3716.0
2017-Nov-17 19:40N 31°56' W 080°32'210.1
2017-Nov-17 19:30N 31°55' W 080°34'5 9.6
2017-Nov-17 19:00N 31°56' W 080°39'4 8.3
2017-Nov-17 18:30N 31°58' W 080°44'714.0
2017-Nov-17 18:00N 32°02' W 080°50'611.5
2017-Nov-17 17:30N 32°04' W 080°57'510.4
2017-Nov-17 17:00N 32°05' W 081°03'3 6.8
2017-Nov-17 16:30N 32°06' W 081°06'2 4.3
2017-Nov-17 16:00N 32°07' W 081°08'0 0.0
2017-Nov-17 15:30N 32°07' W 081°08'0 0.0
2017-Nov-17 14:59N 32°07' W 081°08'0 0.0
2017-Nov-17 14:29N 32°07' W 081°08'0 0.0
2017-Nov-17 13:53N 32°07' W 081°08'0 0.0
2017-Nov-17 13:29N 32°07' W 081°08'0 0.0
2017-Nov-17 12:59N 32°07' W 081°08'0 0.0
2017-Nov-17 12:29N 32°07' W 081°08'0 0.0
2017-Nov-17 11:59N 32°07' W 081°08'0 0.0
2017-Nov-17 11:29N 32°07' W 081°08'0 0.0
2017-Nov-17 10:59N 32°07' W 081°08'0 0.0
2017-Nov-17 10:29N 32°07' W 081°08'0 0.0
2017-Nov-17 09:53N 32°07' W 081°08'0 0.0
2017-Nov-17 09:23N 32°07' W 081°08'0 0.0
2017-Nov-17 08:59N 32°07' W 081°08'0 0.0
2017-Nov-17 08:29N 32°07' W 081°08'0 0.0
2017-Nov-17 07:59N 32°07' W 081°08'0 0.0
2017-Nov-17 07:23N 32°07' W 081°08'0 0.0
2017-Nov-17 06:59N 32°07' W 081°08'0 0.0
2017-Nov-17 06:23N 32°07' W 081°08'0 0.0
2017-Nov-17 05:53N 32°07' W 081°08'0 0.0
2017-Nov-17 05:29N 32°07' W 081°08'0 0.0
2017-Nov-17 04:59N 32°07' W 081°08'0 0.0
2017-Nov-17 04:23N 32°07' W 081°08'0 0.0
2017-Nov-17 03:59N 32°07' W 081°08'0 0.0
2017-Nov-17 03:28N 32°07' W 081°08'0 0.0
2017-Nov-17 02:58N 32°07' W 081°08'0 0.0
2017-Nov-17 02:28N 32°07' W 081°08'0 0.0
2017-Nov-17 01:52N 32°07' W 081°08'0 0.0
2017-Nov-17 01:28N 32°07' W 081°08'0 0.0
2017-Nov-17 00:58N 32°07' W 081°08'0 0.0
2017-Nov-17 00:28N 32°07' W 081°08'0 0.0
2017-Nov-16 23:58N 32°07' W 081°08'0 0.1
2017-Nov-16 23:30N 32°07' W 081°08'0 0.2
2017-Nov-16 23:00N 32°08' W 081°08'3 5.5
2017-Nov-16 22:30N 32°05' W 081°06'3 6.4
2017-Nov-16 22:00N 32°05' W 081°02'4 8.3
2017-Nov-16 21:30N 32°04' W 080°58'510.8
2017-Nov-16 21:00N 32°02' W 080°52'613.0
2017-Nov-16 20:30N 31°59' W 080°45'611.7
2017-Nov-16 20:00N 31°56' W 080°39'510.0
2017-Nov-16 19:30N 31°56' W 080°33'510.0
2017-Nov-16 19:00N 31°56' W 080°27'5915.2
2017-Nov-16 15:10N 32°35' W 079°35'210.0
2017-Nov-16 14:57N 32°37' W 079°37'4 9.5
2017-Nov-16 14:30N 32°40' W 079°41'816.6
2017-Nov-16 14:01N 32°44' W 079°49'612.6
2017-Nov-16 13:30N 32°48' W 079°55'4 7.8
2017-Nov-16 13:00N 32°51' W 079°57'3 5.7
2017-Nov-16 12:30N 32°54' W 079°57'0 0.4
2017-Nov-16 11:59N 32°54' W 079°58'0 0.0
2017-Nov-16 11:30N 32°54' W 079°58'0 0.0
2017-Nov-16 11:00N 32°54' W 079°58'0 0.0
2017-Nov-16 10:30N 32°54' W 079°58'0 0.0
2017-Nov-16 10:00N 32°54' W 079°58'0 0.0
2017-Nov-16 09:30N 32°54' W 079°58'0 0.0
2017-Nov-16 09:00N 32°54' W 079°58'0 0.0
2017-Nov-16 08:30N 32°54' W 079°58'0 0.0
2017-Nov-16 08:00N 32°54' W 079°58'0 0.0
2017-Nov-16 07:30N 32°54' W 079°58'0 0.0
2017-Nov-16 07:00N 32°54' W 079°58'0 0.0
2017-Nov-16 06:30N 32°54' W 079°58'0 0.0
2017-Nov-16 06:00N 32°54' W 079°58'0 0.0
2017-Nov-16 05:30N 32°54' W 079°58'0 0.0
2017-Nov-16 05:00N 32°54' W 079°58'0 0.0
2017-Nov-16 04:30N 32°54' W 079°58'0 0.0
2017-Nov-16 04:00N 32°54' W 079°58'0 0.0
2017-Nov-16 03:29N 32°54' W 079°58'0 0.0
2017-Nov-16 02:59N 32°54' W 079°58'0 0.0
2017-Nov-16 02:29N 32°54' W 079°58'0 0.0
2017-Nov-16 01:59N 32°54' W 079°58'0 0.0
2017-Nov-16 01:29N 32°54' W 079°58'0 0.0
2017-Nov-16 00:59N 32°54' W 079°58'0 0.0
2017-Nov-16 00:29N 32°54' W 079°58'0 0.0
2017-Nov-15 20:44N 32°54' W 079°58'0 0.0
2017-Nov-15 20:29N 32°54' W 079°58'0 0.0
2017-Nov-15 19:59N 32°54' W 079°58'0 0.0
2017-Nov-15 19:29N 32°54' W 079°58'0 0.0
2017-Nov-15 18:59N 32°54' W 079°58'0 0.0
2017-Nov-15 18:29N 32°54' W 079°58'0 0.0
2017-Nov-15 17:59N 32°54' W 079°58'0 0.0
2017-Nov-15 17:29N 32°54' W 079°58'0 0.0
2017-Nov-15 16:59N 32°54' W 079°58'0 0.0
2017-Nov-15 16:29N 32°54' W 079°58'0 0.0
2017-Nov-15 15:59N 32°54' W 079°58'0 0.0
2017-Nov-15 14:20N 32°54' W 079°58'0 0.0
2017-Nov-15 13:59N 32°54' W 079°58'0 0.0
2017-Nov-15 13:29N 32°54' W 079°58'0 0.0
2017-Nov-15 12:59N 32°54' W 079°58'0 0.0
2017-Nov-15 12:29N 32°54' W 079°58'0 0.0
2017-Nov-15 11:59N 32°54' W 079°58'0 0.0
2017-Nov-15 11:30N 32°54' W 079°58'2 4.6
2017-Nov-15 11:00N 32°52' W 079°58'4 7.9
2017-Nov-15 10:30N 32°49' W 079°55'5 9.3
2017-Nov-15 10:00N 32°45' W 079°51'612.7
2017-Nov-15 09:30N 32°42' W 079°45'612.7
2017-Nov-15 09:01N 32°39' W 079°38'5 9.8
2017-Nov-15 08:30N 32°37' W 079°33'5 9.8
2017-Nov-15 08:00N 32°36' W 079°27'40915.2
2017-Nov-14 05:09N 37°58' W 074°20'316.1
2017-Nov-14 04:57N 38°01' W 074°19'716.3
2017-Nov-14 04:31N 38°08' W 074°17'1616.3
2017-Nov-14 03:30N 38°24' W 074°12'2116.4
2017-Nov-14 02:14N 38°45' W 074°06'516.4
2017-Nov-14 01:55N 38°50' W 074°05'716.4
2017-Nov-14 01:29N 38°57' W 074°03'816.4
2017-Nov-14 01:00N 39°04' W 074°01'816.4
2017-Nov-14 00:31N 39°12' W 073°58'816.3
2017-Nov-14 00:00N 39°20' W 073°56'816.2
2017-Nov-13 23:30N 39°28' W 073°54'816.2
2017-Nov-13 23:01N 39°36' W 073°53'816.1
2017-Nov-13 22:30N 39°44' W 073°52'916.1
2017-Nov-13 21:59N 39°53' W 073°51'50 2.5
2017-Nov-13 01:59N 40°41' W 074°09'0 0.0
2017-Nov-13 01:29N 40°41' W 074°09'0 0.0
2017-Nov-13 00:59N 40°41' W 074°09'0 0.0
2017-Nov-13 00:29N 40°41' W 074°09'0 0.0
2017-Nov-12 23:59N 40°41' W 074°09'0 0.0
2017-Nov-12 23:29N 40°41' W 074°09'0 0.0
2017-Nov-12 22:59N 40°41' W 074°09'0 0.0
2017-Nov-12 22:29N 40°41' W 074°09'0 0.0
2017-Nov-12 21:59N 40°41' W 074°09'0 0.0
2017-Nov-12 21:29N 40°41' W 074°09'0 0.0
2017-Nov-12 20:59N 40°41' W 074°09'0 0.0
2017-Nov-12 20:29N 40°41' W 074°09'0 0.0
2017-Nov-12 19:59N 40°41' W 074°09'0 0.0
2017-Nov-12 19:29N 40°41' W 074°09'0 0.0
2017-Nov-12 18:59N 40°41' W 074°09'0 0.0
2017-Nov-12 18:29N 40°41' W 074°09'0 0.0
2017-Nov-12 17:59N 40°41' W 074°09'0 0.0
2017-Nov-12 17:29N 40°41' W 074°09'0 0.0
2017-Nov-12 16:59N 40°41' W 074°09'0 0.0
2017-Nov-12 16:29N 40°41' W 074°09'0 0.4
2017-Nov-12 16:00N 40°41' W 074°08'2 3.9
2017-Nov-12 15:30N 40°39' W 074°08'4 7.7
2017-Nov-12 15:01N 40°38' W 074°03'611.3
2017-Nov-12 14:30N 40°33' W 074°02'712.9
2017-Nov-12 14:00N 40°29' W 073°54'5 9.3
2017-Nov-12 13:30N 40°27' W 073°49'4 7.8
2017-Nov-12 13:00N 40°27' W 073°44'4 8.0
2017-Nov-12 12:30N 40°27' W 073°39'4 7.7
2017-Nov-12 11:59N 40°28' W 073°33'  
2017-Nov-08 00:00N 44°18' W 028°30'   090 / 101038.0 5.4 14.012.310.0
Track history (hours):
 
Tides and Currents Weather Stations Pressure Air Temp Water Temp Dewpoint Dewpoint Depression Visibility Wind Speed Wind Dir Waves Ship Positions

Shanghai Trader

Last reported at 2017-Nov-17 22:00 UTC. Time now 2017-Nov-18 02:57 UTC.
Position N 32°03' W 079°48'.

Length 294 m; draft 11.1 m.

Type: Ship (hazmat cat A). MMSI: 256266000.

Date/timePositionNaut miles runAvg speedWind from/ knotsBaromVisibWave heightAir tempDewpointWater temp
2017-Nov-17 22:00N 32°03' W 079°48'3716.0
2017-Nov-17 19:40N 31°56' W 080°32'210.1
2017-Nov-17 19:30N 31°55' W 080°34'5 9.6
2017-Nov-17 19:00N 31°56' W 080°39'4 8.3
2017-Nov-17 18:30N 31°58' W 080°44'714.0
2017-Nov-17 18:00N 32°02' W 080°50'611.5
2017-Nov-17 17:30N 32°04' W 080°57'510.4
2017-Nov-17 17:00N 32°05' W 081°03'3 6.8
2017-Nov-17 16:30N 32°06' W 081°06'2 4.3
2017-Nov-17 16:00N 32°07' W 081°08'0 0.0
2017-Nov-17 15:30N 32°07' W 081°08'0 0.0
2017-Nov-17 14:59N 32°07' W 081°08'0 0.0
2017-Nov-17 14:29N 32°07' W 081°08'0 0.0
2017-Nov-17 13:53N 32°07' W 081°08'0 0.0
2017-Nov-17 13:29N 32°07' W 081°08'0 0.0
2017-Nov-17 12:59N 32°07' W 081°08'0 0.0
2017-Nov-17 12:29N 32°07' W 081°08'0 0.0
2017-Nov-17 11:59N 32°07' W 081°08'0 0.0
2017-Nov-17 11:29N 32°07' W 081°08'0 0.0
2017-Nov-17 10:59N 32°07' W 081°08'0 0.0
2017-Nov-17 10:29N 32°07' W 081°08'0 0.0
2017-Nov-17 09:53N 32°07' W 081°08'0 0.0
2017-Nov-17 09:23N 32°07' W 081°08'0 0.0
2017-Nov-17 08:59N 32°07' W 081°08'0 0.0
2017-Nov-17 08:29N 32°07' W 081°08'0 0.0
2017-Nov-17 07:59N 32°07' W 081°08'0 0.0
2017-Nov-17 07:23N 32°07' W 081°08'0 0.0
2017-Nov-17 06:59N 32°07' W 081°08'0 0.0
2017-Nov-17 06:23N 32°07' W 081°08'0 0.0
2017-Nov-17 05:53N 32°07' W 081°08'0 0.0
2017-Nov-17 05:29N 32°07' W 081°08'0 0.0
2017-Nov-17 04:59N 32°07' W 081°08'0 0.0
2017-Nov-17 04:23N 32°07' W 081°08'0 0.0
2017-Nov-17 03:59N 32°07' W 081°08'0 0.0
2017-Nov-17 03:28N 32°07' W 081°08'0 0.0
2017-Nov-17 02:58N 32°07' W 081°08'0 0.0
2017-Nov-17 02:28N 32°07' W 081°08'0 0.0
2017-Nov-17 01:52N 32°07' W 081°08'0 0.0
2017-Nov-17 01:28N 32°07' W 081°08'0 0.0
2017-Nov-17 00:58N 32°07' W 081°08'0 0.0
2017-Nov-17 00:28N 32°07' W 081°08'0 0.0
2017-Nov-16 23:58N 32°07' W 081°08'0 0.1
2017-Nov-16 23:30N 32°07' W 081°08'0 0.2
2017-Nov-16 23:00N 32°08' W 081°08'3 5.5
2017-Nov-16 22:30N 32°05' W 081°06'3 6.4
2017-Nov-16 22:00N 32°05' W 081°02'4 8.3
2017-Nov-16 21:30N 32°04' W 080°58'510.8
2017-Nov-16 21:00N 32°02' W 080°52'613.0
2017-Nov-16 20:30N 31°59' W 080°45'611.7
2017-Nov-16 20:00N 31°56' W 080°39'510.0
2017-Nov-16 19:30N 31°56' W 080°33'510.0
2017-Nov-16 19:00N 31°56' W 080°27'5915.2
2017-Nov-16 15:10N 32°35' W 079°35'210.0
2017-Nov-16 14:57N 32°37' W 079°37'4 9.5
2017-Nov-16 14:30N 32°40' W 079°41'816.6
2017-Nov-16 14:01N 32°44' W 079°49'612.6
2017-Nov-16 13:30N 32°48' W 079°55'4 7.8
2017-Nov-16 13:00N 32°51' W 079°57'3 5.7
2017-Nov-16 12:30N 32°54' W 079°57'0 0.4
2017-Nov-16 11:59N 32°54' W 079°58'0 0.0
2017-Nov-16 11:30N 32°54' W 079°58'0 0.0
2017-Nov-16 11:00N 32°54' W 079°58'0 0.0
2017-Nov-16 10:30N 32°54' W 079°58'0 0.0
2017-Nov-16 10:00N 32°54' W 079°58'0 0.0
2017-Nov-16 09:30N 32°54' W 079°58'0 0.0
2017-Nov-16 09:00N 32°54' W 079°58'0 0.0
2017-Nov-16 08:30N 32°54' W 079°58'0 0.0
2017-Nov-16 08:00N 32°54' W 079°58'0 0.0
2017-Nov-16 07:30N 32°54' W 079°58'0 0.0
2017-Nov-16 07:00N 32°54' W 079°58'0 0.0
2017-Nov-16 06:30N 32°54' W 079°58'0 0.0
2017-Nov-16 06:00N 32°54' W 079°58'0 0.0
2017-Nov-16 05:30N 32°54' W 079°58'0 0.0
2017-Nov-16 05:00N 32°54' W 079°58'0 0.0
2017-Nov-16 04:30N 32°54' W 079°58'0 0.0
2017-Nov-16 04:00N 32°54' W 079°58'0 0.0
2017-Nov-16 03:29N 32°54' W 079°58'0 0.0
2017-Nov-16 02:59N 32°54' W 079°58'0 0.0
2017-Nov-16 02:29N 32°54' W 079°58'0 0.0
2017-Nov-16 01:59N 32°54' W 079°58'0 0.0
2017-Nov-16 01:29N 32°54' W 079°58'0 0.0
2017-Nov-16 00:59N 32°54' W 079°58'0 0.0
2017-Nov-16 00:29N 32°54' W 079°58'0 0.0
2017-Nov-15 20:44N 32°54' W 079°58'0 0.0
2017-Nov-15 20:29N 32°54' W 079°58'0 0.0
2017-Nov-15 19:59N 32°54' W 079°58'0 0.0
2017-Nov-15 19:29N 32°54' W 079°58'0 0.0
2017-Nov-15 18:59N 32°54' W 079°58'0 0.0
2017-Nov-15 18:29N 32°54' W 079°58'0 0.0
2017-Nov-15 17:59N 32°54' W 079°58'0 0.0
2017-Nov-15 17:29N 32°54' W 079°58'0 0.0
2017-Nov-15 16:59N 32°54' W 079°58'0 0.0
2017-Nov-15 16:29N 32°54' W 079°58'0 0.0
2017-Nov-15 15:59N 32°54' W 079°58'0 0.0
2017-Nov-15 14:20N 32°54' W 079°58'0 0.0
2017-Nov-15 13:59N 32°54' W 079°58'0 0.0
2017-Nov-15 13:29N 32°54' W 079°58'0 0.0
2017-Nov-15 12:59N 32°54' W 079°58'0 0.0
2017-Nov-15 12:29N 32°54' W 079°58'0 0.0
2017-Nov-15 11:59N 32°54' W 079°58'0 0.0
2017-Nov-15 11:30N 32°54' W 079°58'2 4.6
2017-Nov-15 11:00N 32°52' W 079°58'4 7.9
2017-Nov-15 10:30N 32°49' W 079°55'5 9.3
2017-Nov-15 10:00N 32°45' W 079°51'612.7
2017-Nov-15 09:30N 32°42' W 079°45'612.7
2017-Nov-15 09:01N 32°39' W 079°38'5 9.8
2017-Nov-15 08:30N 32°37' W 079°33'5 9.8
2017-Nov-15 08:00N 32°36' W 079°27'40915.2
2017-Nov-14 05:09N 37°58' W 074°20'316.1
2017-Nov-14 04:57N 38°01' W 074°19'716.3
2017-Nov-14 04:31N 38°08' W 074°17'1616.3
2017-Nov-14 03:30N 38°24' W 074°12'2116.4
2017-Nov-14 02:14N 38°45' W 074°06'516.4
2017-Nov-14 01:55N 38°50' W 074°05'716.4
2017-Nov-14 01:29N 38°57' W 074°03'816.4
2017-Nov-14 01:00N 39°04' W 074°01'816.4
2017-Nov-14 00:31N 39°12' W 073°58'816.3
2017-Nov-14 00:00N 39°20' W 073°56'816.2
2017-Nov-13 23:30N 39°28' W 073°54'816.2
2017-Nov-13 23:01N 39°36' W 073°53'816.1
2017-Nov-13 22:30N 39°44' W 073°52'916.1
2017-Nov-13 21:59N 39°53' W 073°51'50 2.5
2017-Nov-13 01:59N 40°41' W 074°09'0 0.0
2017-Nov-13 01:29N 40°41' W 074°09'0 0.0
2017-Nov-13 00:59N 40°41' W 074°09'0 0.0
2017-Nov-13 00:29N 40°41' W 074°09'0 0.0
2017-Nov-12 23:59N 40°41' W 074°09'0 0.0
2017-Nov-12 23:29N 40°41' W 074°09'0 0.0
2017-Nov-12 22:59N 40°41' W 074°09'0 0.0
2017-Nov-12 22:29N 40°41' W 074°09'0 0.0
2017-Nov-12 21:59N 40°41' W 074°09'0 0.0
2017-Nov-12 21:29N 40°41' W 074°09'0 0.0
2017-Nov-12 20:59N 40°41' W 074°09'0 0.0
2017-Nov-12 20:29N 40°41' W 074°09'0 0.0
2017-Nov-12 19:59N 40°41' W 074°09'0 0.0
2017-Nov-12 19:29N 40°41' W 074°09'0 0.0
2017-Nov-12 18:59N 40°41' W 074°09'0 0.0
2017-Nov-12 18:29N 40°41' W 074°09'0 0.0
2017-Nov-12 17:59N 40°41' W 074°09'0 0.0
2017-Nov-12 17:29N 40°41' W 074°09'0 0.0
2017-Nov-12 16:59N 40°41' W 074°09'0 0.0
2017-Nov-12 16:29N 40°41' W 074°09'0 0.4
2017-Nov-12 16:00N 40°41' W 074°08'2 3.9
2017-Nov-12 15:30N 40°39' W 074°08'4 7.7
2017-Nov-12 15:01N 40°38' W 074°03'611.3
2017-Nov-12 14:30N 40°33' W 074°02'712.9
2017-Nov-12 14:00N 40°29' W 073°54'5 9.3
2017-Nov-12 13:30N 40°27' W 073°49'4 7.8
2017-Nov-12 13:00N 40°27' W 073°44'4 8.0
2017-Nov-12 12:30N 40°27' W 073°39'4 7.7
2017-Nov-12 11:59N 40°28' W 073°33'  
2017-Nov-08 00:00N 44°18' W 028°30'   090 / 101038.0 5.4 14.012.310.0

Dump ship's entire track history